sensor_id;sensor_type;location;lat;lon;timestamp;pressure;altitude;pressure_sealevel;temperature
20867;BMP280;10593;48.398;10.698;2022-10-28T00:01:17;97066.00;;;19.78
20867;BMP280;10593;48.398;10.698;2022-10-28T00:03:56;97073.03;;;19.76
20867;BMP280;10593;48.398;10.698;2022-10-28T00:06:32;97073.09;;;19.75
20867;BMP280;10593;48.398;10.698;2022-10-28T00:08:59;97065.31;;;19.73
20867;BMP280;10593;48.398;10.698;2022-10-28T00:11:31;97066.16;;;19.74
20867;BMP280;10593;48.398;10.698;2022-10-28T00:14:00;97061.00;;;19.72
20867;BMP280;10593;48.398;10.698;2022-10-28T00:16:31;97061.91;;;19.71
20867;BMP280;10593;48.398;10.698;2022-10-28T00:18:58;97070.66;;;19.70
20867;BMP280;10593;48.398;10.698;2022-10-28T00:21:28;97066.34;;;19.69
20867;BMP280;10593;48.398;10.698;2022-10-28T00:23:54;97068.19;;;19.67
20867;BMP280;10593;48.398;10.698;2022-10-28T00:26:27;97062.03;;;19.68
20867;BMP280;10593;48.398;10.698;2022-10-28T00:28:58;97061.25;;;19.66
20867;BMP280;10593;48.398;10.698;2022-10-28T00:31:27;97056.09;;;19.65
20867;BMP280;10593;48.398;10.698;2022-10-28T00:33:54;97070.91;;;19.64
20867;BMP280;10593;48.398;10.698;2022-10-28T00:36:26;97069.22;;;19.63
20867;BMP280;10593;48.398;10.698;2022-10-28T00:38:54;97067.50;;;19.62
20867;BMP280;10593;48.398;10.698;2022-10-28T00:41:34;97066.66;;;19.62
20867;BMP280;10593;48.398;10.698;2022-10-28T00:47:53;97059.09;;;19.56
20867;BMP280;10593;48.398;10.698;2022-10-28T00:50:43;97067.88;;;19.53
20867;BMP280;10593;48.398;10.698;2022-10-28T00:53:16;97066.19;;;19.52
20867;BMP280;10593;48.398;10.698;2022-10-28T00:55:44;97056.66;;;19.51
20867;BMP280;10593;48.398;10.698;2022-10-28T00:58:12;97060.19;;;19.50
20867;BMP280;10593;48.398;10.698;2022-10-28T01:00:38;97059.31;;;19.50
20867;BMP280;10593;48.398;10.698;2022-10-28T01:03:04;97061.09;;;19.49
20867;BMP280;10593;48.398;10.698;2022-10-28T01:05:35;97067.16;;;19.50
20867;BMP280;10593;48.398;10.698;2022-10-28T01:08:03;97061.97;;;19.48
20867;BMP280;10593;48.398;10.698;2022-10-28T01:17:22;97061.44;;;19.40
20867;BMP280;10593;48.398;10.698;2022-10-28T01:20:23;97057.19;;;19.38
20867;BMP280;10593;48.398;10.698;2022-10-28T01:31:52;97047.94;;;19.31
20867;BMP280;10593;48.398;10.698;2022-10-28T01:34:48;97044.47;;;19.30
20867;BMP280;10593;48.398;10.698;2022-10-28T01:37:46;97043.69;;;19.28
20867;BMP280;10593;48.398;10.698;2022-10-28T01:40:45;97045.50;;;19.26
20867;BMP280;10593;48.398;10.698;2022-10-28T01:43:51;97040.28;;;19.26
20867;BMP280;10593;48.398;10.698;2022-10-28T01:46:18;97035.97;;;19.25
20867;BMP280;10593;48.398;10.698;2022-10-28T01:49:00;97035.13;;;19.25
20867;BMP280;10593;48.398;10.698;2022-10-28T01:51:41;97038.59;;;19.25
20867;BMP280;10593;48.398;10.698;2022-10-28T01:54:13;97046.47;;;19.24
20867;BMP280;10593;48.398;10.698;2022-10-28T01:56:41;97041.25;;;19.24
20867;BMP280;10593;48.398;10.698;2022-10-28T01:59:13;97043.03;;;19.23
20867;BMP280;10593;48.398;10.698;2022-10-28T02:01:40;97040.47;;;19.22
20867;BMP280;10593;48.398;10.698;2022-10-28T02:04:06;97043.94;;;19.22
20867;BMP280;10593;48.398;10.698;2022-10-28T02:06:32;97042.19;;;19.21
20867;BMP280;10593;48.398;10.698;2022-10-28T02:09:19;97045.72;;;19.20
20867;BMP280;10593;48.398;10.698;2022-10-28T02:15:13;97040.69;;;19.16
20867;BMP280;10593;48.398;10.698;2022-10-28T02:18:19;97036.41;;;19.13
20867;BMP280;10593;48.398;10.698;2022-10-28T02:20:58;97032.91;;;19.14
20867;BMP280;10593;48.398;10.698;2022-10-28T02:23:44;97034.72;;;19.12
20867;BMP280;10593;48.398;10.698;2022-10-28T02:26:37;97033.06;;;19.10
20867;BMP280;10593;48.398;10.698;2022-10-28T02:29:37;97026.22;;;19.07
20867;BMP280;10593;48.398;10.698;2022-10-28T02:32:07;97021.88;;;19.08
20867;BMP280;10593;48.398;10.698;2022-10-28T02:34:42;97027.06;;;19.08
20867;BMP280;10593;48.398;10.698;2022-10-28T02:37:20;97024.53;;;19.06
20867;BMP280;10593;48.398;10.698;2022-10-28T02:39:52;97021.09;;;19.06
20867;BMP280;10593;48.398;10.698;2022-10-28T02:42:28;97011.56;;;19.05
20867;BMP280;10593;48.398;10.698;2022-10-28T02:45:06;97020.28;;;19.04
20867;BMP280;10593;48.398;10.698;2022-10-28T02:47:39;97024.66;;;19.03
20867;BMP280;10593;48.398;10.698;2022-10-28T02:50:11;97029.84;;;19.03
20867;BMP280;10593;48.398;10.698;2022-10-28T02:52:43;97022.94;;;19.02
20867;BMP280;10593;48.398;10.698;2022-10-28T02:55:10;97023.84;;;19.02
20867;BMP280;10593;48.398;10.698;2022-10-28T02:57:43;97018.66;;;19.02
20867;BMP280;10593;48.398;10.698;2022-10-28T03:00:20;97022.09;;;19.02
20867;BMP280;10593;48.398;10.698;2022-10-28T03:02:46;97015.25;;;19.00
20867;BMP280;10593;48.398;10.698;2022-10-28T03:05:12;97021.38;;;18.99
20867;BMP280;10593;48.398;10.698;2022-10-28T03:07:39;97014.47;;;18.98
20867;BMP280;10593;48.398;10.698;2022-10-28T03:10:05;97013.59;;;18.97
20867;BMP280;10593;48.398;10.698;2022-10-28T03:12:31;97011.91;;;18.96
20867;BMP280;10593;48.398;10.698;2022-10-28T03:14:57;97013.69;;;18.96
20867;BMP280;10593;48.398;10.698;2022-10-28T03:17:23;97015.44;;;18.95
20867;BMP280;10593;48.398;10.698;2022-10-28T03:19:48;97019.78;;;18.95
20867;BMP280;10593;48.398;10.698;2022-10-28T03:22:15;97005.06;;;18.94
20867;BMP280;10593;48.398;10.698;2022-10-28T03:24:41;97019.84;;;18.93
20867;BMP280;10593;48.398;10.698;2022-10-28T03:27:07;97012.03;;;18.93
20867;BMP280;10593;48.398;10.698;2022-10-28T03:29:33;97019.91;;;18.92
20867;BMP280;10593;48.398;10.698;2022-10-28T03:31:59;97015.59;;;18.91
20867;BMP280;10593;48.398;10.698;2022-10-28T03:34:24;97017.38;;;18.90
20867;BMP280;10593;48.398;10.698;2022-10-28T03:36:50;97017.38;;;18.90
20867;BMP280;10593;48.398;10.698;2022-10-28T03:39:16;97024.31;;;18.90
20867;BMP280;10593;48.398;10.698;2022-10-28T03:41:41;97020.88;;;18.89
20867;BMP280;10593;48.398;10.698;2022-10-28T03:44:07;97022.63;;;18.89
20867;BMP280;10593;48.398;10.698;2022-10-28T03:46:33;97022.66;;;18.87
20867;BMP280;10593;48.398;10.698;2022-10-28T03:48:58;97028.75;;;18.88
20867;BMP280;10593;48.398;10.698;2022-10-28T03:51:24;97025.34;;;18.86
20867;BMP280;10593;48.398;10.698;2022-10-28T03:53:50;97023.66;;;18.85
20867;BMP280;10593;48.398;10.698;2022-10-28T03:56:15;97028.00;;;18.84
20867;BMP280;10593;48.398;10.698;2022-10-28T03:58:41;97026.31;;;18.83
20867;BMP280;10593;48.398;10.698;2022-10-28T04:01:07;97030.69;;;18.83
20867;BMP280;10593;48.398;10.698;2022-10-28T04:03:32;97034.16;;;18.82
20867;BMP280;10593;48.398;10.698;2022-10-28T04:05:58;97029.88;;;18.81
20867;BMP280;10593;48.398;10.698;2022-10-28T04:08:24;97029.94;;;18.79
20867;BMP280;10593;48.398;10.698;2022-10-28T04:10:49;97033.47;;;18.78
20867;BMP280;10593;48.398;10.698;2022-10-28T04:13:16;97034.38;;;18.77
20867;BMP280;10593;48.398;10.698;2022-10-28T04:15:42;97023.13;;;18.75
20867;BMP280;10593;48.398;10.698;2022-10-28T04:18:08;97026.63;;;18.74
20867;BMP280;10593;48.398;10.698;2022-10-28T04:20:35;97024.94;;;18.73
20867;BMP280;10593;48.398;10.698;2022-10-28T04:23:01;97027.63;;;18.72
20867;BMP280;10593;48.398;10.698;2022-10-28T04:25:27;97023.31;;;18.71
20867;BMP280;10593;48.398;10.698;2022-10-28T04:27:53;97019.84;;;18.70
20867;BMP280;10593;48.398;10.698;2022-10-28T04:30:19;97025.13;;;18.69
20867;BMP280;10593;48.398;10.698;2022-10-28T04:32:45;97025.19;;;18.67
20867;BMP280;10593;48.398;10.698;2022-10-28T04:35:12;97020.88;;;18.66
20867;BMP280;10593;48.398;10.698;2022-10-28T04:37:39;97017.41;;;18.66
20867;BMP280;10593;48.398;10.698;2022-10-28T04:40:07;97020.09;;;18.64
20867;BMP280;10593;48.398;10.698;2022-10-28T04:42:32;97016.69;;;18.62
20867;BMP280;10593;48.398;10.698;2022-10-28T04:44:58;97025.41;;;18.61
20867;BMP280;10593;48.398;10.698;2022-10-28T04:47:24;97022.88;;;18.60
20867;BMP280;10593;48.398;10.698;2022-10-28T04:49:50;97015.97;;;18.59
20867;BMP280;10593;48.398;10.698;2022-10-28T04:52:16;97013.41;;;18.57
20867;BMP280;10593;48.398;10.698;2022-10-28T04:54:41;97013.47;;;18.56
20867;BMP280;10593;48.398;10.698;2022-10-28T04:57:07;97014.31;;;18.56
20867;BMP280;10593;48.398;10.698;2022-10-28T04:59:34;97012.63;;;18.55
20867;BMP280;10593;48.398;10.698;2022-10-28T05:02:00;97015.25;;;18.54
20867;BMP280;10593;48.398;10.698;2022-10-28T05:04:25;97012.72;;;18.52
20867;BMP280;10593;48.398;10.698;2022-10-28T05:06:51;97013.63;;;18.51
20867;BMP280;10593;48.398;10.698;2022-10-28T05:09:17;97012.78;;;18.51
20867;BMP280;10593;48.398;10.698;2022-10-28T05:11:42;97011.97;;;18.49
20867;BMP280;10593;48.398;10.698;2022-10-28T05:14:08;97020.69;;;18.48
20867;BMP280;10593;48.398;10.698;2022-10-28T05:16:34;97011.19;;;18.47
20867;BMP280;10593;48.398;10.698;2022-10-28T05:18:59;97009.50;;;18.46
20867;BMP280;10593;48.398;10.698;2022-10-28T05:21:25;97003.44;;;18.45
20867;BMP280;10593;48.398;10.698;2022-10-28T05:23:51;97000.91;;;18.44
20867;BMP280;10593;48.398;10.698;2022-10-28T05:26:17;97008.72;;;18.44
20867;BMP280;10593;48.398;10.698;2022-10-28T05:28:42;97007.00;;;18.43
20867;BMP280;10593;48.398;10.698;2022-10-28T05:31:09;97008.75;;;18.42
20867;BMP280;10593;48.398;10.698;2022-10-28T05:33:36;97006.16;;;18.42
20867;BMP280;10593;48.398;10.698;2022-10-28T05:36:02;97007.09;;;18.40
20867;BMP280;10593;48.398;10.698;2022-10-28T05:38:27;97009.72;;;18.40
20867;BMP280;10593;48.398;10.698;2022-10-28T05:40:53;97006.31;;;18.38
20867;BMP280;10593;48.398;10.698;2022-10-28T05:43:19;97010.69;;;18.37
20867;BMP280;10593;48.398;10.698;2022-10-28T05:45:55;97015.88;;;18.37
20867;BMP280;10593;48.398;10.698;2022-10-28T05:48:21;97015.97;;;18.34
20867;BMP280;10593;48.398;10.698;2022-10-28T05:50:47;97026.38;;;18.34
20867;BMP280;10593;48.398;10.698;2022-10-28T05:53:13;97028.16;;;18.34
20867;BMP280;10593;48.398;10.698;2022-10-28T05:55:38;97030.81;;;18.32
20867;BMP280;10593;48.398;10.698;2022-10-28T05:58:04;97032.56;;;18.32
20867;BMP280;10593;48.398;10.698;2022-10-28T06:00:30;97045.59;;;18.32
20867;BMP280;10593;48.398;10.698;2022-10-28T06:03:08;97048.19;;;18.32
20867;BMP280;10593;48.398;10.698;2022-10-28T06:05:36;97047.38;;;18.30
20867;BMP280;10593;48.398;10.698;2022-10-28T06:08:04;97053.50;;;18.29
20867;BMP280;10593;48.398;10.698;2022-10-28T06:10:30;97062.16;;;18.29
20867;BMP280;10593;48.398;10.698;2022-10-28T06:12:57;97063.91;;;18.29
20867;BMP280;10593;48.398;10.698;2022-10-28T06:15:23;97056.09;;;18.29
20867;BMP280;10593;48.398;10.698;2022-10-28T06:17:49;97063.03;;;18.28
20867;BMP280;10593;48.398;10.698;2022-10-28T06:20:16;97070.00;;;18.28
20867;BMP280;10593;48.398;10.698;2022-10-28T06:22:53;97069.13;;;18.29
20867;BMP280;10593;48.398;10.698;2022-10-28T06:25:21;97074.34;;;18.27
20867;BMP280;10593;48.398;10.698;2022-10-28T06:27:58;97076.06;;;18.27
20867;BMP280;10593;48.398;10.698;2022-10-28T06:30:26;97076.06;;;18.27
20867;BMP280;10593;48.398;10.698;2022-10-28T06:32:55;97069.16;;;18.26
20867;BMP280;10593;48.398;10.698;2022-10-28T06:35:21;97066.56;;;18.26
20867;BMP280;10593;48.398;10.698;2022-10-28T06:37:46;97071.75;;;18.26
20867;BMP280;10593;48.398;10.698;2022-10-28T06:40:12;97065.72;;;18.25
20867;BMP280;10593;48.398;10.698;2022-10-28T06:42:38;97070.03;;;18.26
20867;BMP280;10593;48.398;10.698;2022-10-28T06:45:04;97073.53;;;18.25
20867;BMP280;10593;48.398;10.698;2022-10-28T06:47:30;97066.56;;;18.26
20867;BMP280;10593;48.398;10.698;2022-10-28T06:49:55;97077.84;;;18.26
20867;BMP280;10593;48.398;10.698;2022-10-28T06:52:21;97078.75;;;18.25
20867;BMP280;10593;48.398;10.698;2022-10-28T06:54:47;97076.13;;;18.25
20867;BMP280;10593;48.398;10.698;2022-10-28T06:57:12;97079.56;;;18.26
20867;BMP280;10593;48.398;10.698;2022-10-28T06:59:38;97075.22;;;18.26
20867;BMP280;10593;48.398;10.698;2022-10-28T07:02:04;97080.41;;;18.28
20867;BMP280;10593;48.398;10.698;2022-10-28T07:04:29;97076.06;;;18.28
20867;BMP280;10593;48.398;10.698;2022-10-28T07:06:56;97074.31;;;18.29
20867;BMP280;10593;48.398;10.698;2022-10-28T07:09:22;97074.31;;;18.29
20867;BMP280;10593;48.398;10.698;2022-10-28T07:11:48;97074.31;;;18.29
20867;BMP280;10593;48.398;10.698;2022-10-28T07:14:14;97076.84;;;18.30
20867;BMP280;10593;48.398;10.698;2022-10-28T07:16:40;97075.13;;;18.31
20867;BMP280;10593;48.398;10.698;2022-10-28T07:19:07;97071.59;;;18.32
20867;BMP280;10593;48.398;10.698;2022-10-28T07:21:33;97070.69;;;18.33
20867;BMP280;10593;48.398;10.698;2022-10-28T07:23:59;97073.31;;;18.33
20867;BMP280;10593;48.398;10.698;2022-10-28T07:26:25;97064.59;;;18.34
20867;BMP280;10593;48.398;10.698;2022-10-28T07:28:53;97074.09;;;18.35
20867;BMP280;10593;48.398;10.698;2022-10-28T07:31:18;97081.00;;;18.36
20867;BMP280;10593;48.398;10.698;2022-10-28T07:33:44;97080.97;;;18.37
20867;BMP280;10593;48.398;10.698;2022-10-28T07:36:16;97084.41;;;18.38
20867;BMP280;10593;48.398;10.698;2022-10-28T07:38:43;97084.41;;;18.38
20867;BMP280;10593;48.398;10.698;2022-10-28T07:41:09;97096.47;;;18.40
20867;BMP280;10593;48.398;10.698;2022-10-28T07:43:36;97092.09;;;18.41
20867;BMP280;10593;48.398;10.698;2022-10-28T07:46:04;97091.22;;;18.42
20867;BMP280;10593;48.398;10.698;2022-10-28T07:48:31;97088.53;;;18.43
20867;BMP280;10593;48.398;10.698;2022-10-28T07:51:01;97092.00;;;18.44
20867;BMP280;10593;48.398;10.698;2022-10-28T07:53:27;97099.75;;;18.45
20867;BMP280;10593;48.398;10.698;2022-10-28T07:55:59;97103.13;;;18.47
20867;BMP280;10593;48.398;10.698;2022-10-28T07:58:26;97106.56;;;18.49
20867;BMP280;10593;48.398;10.698;2022-10-28T08:00:52;97102.19;;;18.50
20867;BMP280;10593;48.398;10.698;2022-10-28T08:03:18;97096.94;;;18.51
20867;BMP280;10593;48.398;10.698;2022-10-28T08:05:46;97102.97;;;18.52
20867;BMP280;10593;48.398;10.698;2022-10-28T08:08:11;97102.94;;;18.53
20867;BMP280;10593;48.398;10.698;2022-10-28T08:10:37;97101.16;;;18.54
20867;BMP280;10593;48.398;10.698;2022-10-28T08:13:03;97094.19;;;18.56
20867;BMP280;10593;48.398;10.698;2022-10-28T08:15:28;97091.56;;;18.56
20867;BMP280;10593;48.398;10.698;2022-10-28T08:17:55;97088.91;;;18.57
20867;BMP280;10593;48.398;10.698;2022-10-28T08:20:22;97091.47;;;18.59
20867;BMP280;10593;48.398;10.698;2022-10-28T08:22:48;97091.47;;;18.59
20867;BMP280;10593;48.398;10.698;2022-10-28T08:25:13;97095.75;;;18.60
20867;BMP280;10593;48.398;10.698;2022-10-28T08:27:39;97093.94;;;18.62
20867;BMP280;10593;48.398;10.698;2022-10-28T08:30:08;97086.13;;;18.62
20867;BMP280;10593;48.398;10.698;2022-10-28T08:32:34;97095.66;;;18.63
20867;BMP280;10593;48.398;10.698;2022-10-28T08:35:00;97093.03;;;18.63
20867;BMP280;10593;48.398;10.698;2022-10-28T08:37:26;97105.13;;;18.65
20867;BMP280;10593;48.398;10.698;2022-10-28T08:39:51;97092.09;;;18.65
20867;BMP280;10593;48.398;10.698;2022-10-28T08:42:34;97096.31;;;18.68
20867;BMP280;10593;48.398;10.698;2022-10-28T08:45:16;97097.22;;;18.67
20867;BMP280;10593;48.398;10.698;2022-10-28T08:48:04;97096.28;;;18.69
20867;BMP280;10593;48.398;10.698;2022-10-28T08:50:49;97092.84;;;18.69
20867;BMP280;10593;48.398;10.698;2022-10-28T08:53:36;97080.63;;;18.71
20867;BMP280;10593;48.398;10.698;2022-10-28T08:56:42;97076.19;;;18.73
20867;BMP280;10593;48.398;10.698;2022-10-28T08:59:17;97069.16;;;18.75
20867;BMP280;10593;48.398;10.698;2022-10-28T09:01:53;97073.34;;;18.79
20867;BMP280;10593;48.398;10.698;2022-10-28T09:04:43;97079.34;;;18.81
20867;BMP280;10593;48.398;10.698;2022-10-28T09:07:17;97082.69;;;18.84
20867;BMP280;10593;48.398;10.698;2022-10-28T09:09:46;97087.78;;;18.87
20867;BMP280;10593;48.398;10.698;2022-10-28T09:15:15;97071.88;;;18.95
20867;BMP280;10593;48.398;10.698;2022-10-28T09:18:16;97079.66;;;18.96
20867;BMP280;10593;48.398;10.698;2022-10-28T09:20:52;97076.00;;;19.00
20867;BMP280;10593;48.398;10.698;2022-10-28T09:23:48;97060.28;;;19.03
20867;BMP280;10593;48.398;10.698;2022-10-28T09:26:56;97057.47;;;19.07
20867;BMP280;10593;48.398;10.698;2022-10-28T09:32:26;97066.03;;;19.11
20867;BMP280;10593;48.398;10.698;2022-10-28T09:35:09;97059.78;;;19.15
20867;BMP280;10593;48.398;10.698;2022-10-28T09:37:49;97054.53;;;19.18
20867;BMP280;10593;48.398;10.698;2022-10-28T09:40:39;97062.16;;;19.22
20867;BMP280;10593;48.398;10.698;2022-10-28T09:43:25;97055.91;;;19.26
20867;BMP280;10593;48.398;10.698;2022-10-28T09:45:57;97047.97;;;19.29
20867;BMP280;10593;48.398;10.698;2022-10-28T09:48:28;97070.41;;;19.33
20867;BMP280;10593;48.398;10.698;2022-10-28T09:50:58;97059.88;;;19.36
20867;BMP280;10593;48.398;10.698;2022-10-28T09:53:37;97058.84;;;19.40
20867;BMP280;10593;48.398;10.698;2022-10-28T09:56:04;97069.94;;;19.45
20867;BMP280;10593;48.398;10.698;2022-10-28T09:58:33;97068.97;;;19.48
20867;BMP280;10593;48.398;10.698;2022-10-28T10:01:00;97068.78;;;19.52
20867;BMP280;10593;48.398;10.698;2022-10-28T10:03:26;97066.97;;;19.54
20867;BMP280;10593;48.398;10.698;2022-10-28T10:05:57;97077.22;;;19.59
20867;BMP280;10593;48.398;10.698;2022-10-28T10:08:24;97082.31;;;19.62
20867;BMP280;10593;48.398;10.698;2022-10-28T10:11:15;97077.81;;;19.65
20867;BMP280;10593;48.398;10.698;2022-10-28T10:13:45;97074.31;;;19.66
20867;BMP280;10593;48.398;10.698;2022-10-28T10:16:23;97070.66;;;19.70
20867;BMP280;10593;48.398;10.698;2022-10-28T10:18:55;97070.53;;;19.73
20867;BMP280;10593;48.398;10.698;2022-10-28T10:21:52;97082.66;;;19.74
20867;BMP280;10593;48.398;10.698;2022-10-28T10:26:54;97077.22;;;19.80
20867;BMP280;10593;48.398;10.698;2022-10-28T10:29:21;97071.84;;;19.83
20867;BMP280;10593;48.398;10.698;2022-10-28T10:32:03;97072.59;;;19.87
20867;BMP280;10593;48.398;10.698;2022-10-28T10:34:30;97068.16;;;19.89
20867;BMP280;10593;48.398;10.698;2022-10-28T10:36:56;97063.66;;;19.92
20867;BMP280;10593;48.398;10.698;2022-10-28T10:39:36;97063.53;;;19.95
20867;BMP280;10593;48.398;10.698;2022-10-28T10:42:14;97060.75;;;20.00
20867;BMP280;10593;48.398;10.698;2022-10-28T10:44:40;97055.44;;;20.01
20867;BMP280;10593;48.398;10.698;2022-10-28T10:49:34;97060.38;;;20.09
20867;BMP280;10593;48.398;10.698;2022-10-28T10:52:05;97061.09;;;20.12
20867;BMP280;10593;48.398;10.698;2022-10-28T10:54:36;97051.44;;;20.14
20867;BMP280;10593;48.398;10.698;2022-10-28T10:57:15;97053.84;;;20.19
20867;BMP280;10593;48.398;10.698;2022-10-28T10:59:49;97059.81;;;20.22
20867;BMP280;10593;48.398;10.698;2022-10-28T11:02:32;97054.44;;;20.25
20867;BMP280;10593;48.398;10.698;2022-10-28T11:05:07;97060.38;;;20.29
20867;BMP280;10593;48.398;10.698;2022-10-28T11:07:36;97058.50;;;20.32
20867;BMP280;10593;48.398;10.698;2022-10-28T11:10:04;97054.06;;;20.34
20867;BMP280;10593;48.398;10.698;2022-10-28T11:12:35;97049.47;;;20.39
20867;BMP280;10593;48.398;10.698;2022-10-28T11:15:19;97041.50;;;20.42
20867;BMP280;10593;48.398;10.698;2022-10-28T11:18:15;97042.31;;;20.44
20867;BMP280;10593;48.398;10.698;2022-10-28T11:21:07;97036.94;;;20.47
20867;BMP280;10593;48.398;10.698;2022-10-28T11:26:10;97040.97;;;20.54
20867;BMP280;10593;48.398;10.698;2022-10-28T11:37:57;97035.34;;;20.63
20867;BMP280;10593;48.398;10.698;2022-10-28T11:40:39;97030.91;;;20.65
20867;BMP280;10593;48.398;10.698;2022-10-28T11:43:43;97023.72;;;20.70
20867;BMP280;10593;48.398;10.698;2022-10-28T11:46:51;97032.25;;;20.74
20867;BMP280;10593;48.398;10.698;2022-10-28T11:49:37;97028.66;;;20.76
20867;BMP280;10593;48.398;10.698;2022-10-28T11:52:30;97024.97;;;20.80
20867;BMP280;10593;48.398;10.698;2022-10-28T11:55:37;97016.22;;;20.81
20867;BMP280;10593;48.398;10.698;2022-10-28T12:04:13;97005.25;;;20.93
20867;BMP280;10593;48.398;10.698;2022-10-28T12:09:59;97000.53;;;21.01
20867;BMP280;10593;48.398;10.698;2022-10-28T12:21:59;96987.75;;;21.30
20867;BMP280;10593;48.398;10.698;2022-10-28T12:24:30;96987.31;;;21.39
20867;BMP280;10593;48.398;10.698;2022-10-28T12:27:03;96993.88;;;21.48
20867;BMP280;10593;48.398;10.698;2022-10-28T12:29:40;96990.88;;;21.55
20867;BMP280;10593;48.398;10.698;2022-10-28T12:32:17;96985.38;;;21.61
20867;BMP280;10593;48.398;10.698;2022-10-28T12:35:06;96980.56;;;21.71
20867;BMP280;10593;48.398;10.698;2022-10-28T12:38:41;96981.16;;;21.76
20867;BMP280;10593;48.398;10.698;2022-10-28T12:40:52;96986.00;;;21.83
20867;BMP280;10593;48.398;10.698;2022-10-28T12:43:28;96984.97;;;21.87
20867;BMP280;10593;48.398;10.698;2022-10-28T12:45:56;96980.31;;;21.92
20867;BMP280;10593;48.398;10.698;2022-10-28T12:48:44;96976.56;;;21.98
20867;BMP280;10593;48.398;10.698;2022-10-28T12:51:36;96965.75;;;22.04
20867;BMP280;10593;48.398;10.698;2022-10-28T12:54:29;96968.00;;;22.11
20867;BMP280;10593;48.398;10.698;2022-10-28T12:57:12;96963.38;;;22.16
20867;BMP280;10593;48.398;10.698;2022-10-28T12:59:44;96965.66;;;22.22
20867;BMP280;10593;48.398;10.698;2022-10-28T13:02:20;96967.13;;;22.28
20867;BMP280;10593;48.398;10.698;2022-10-28T13:04:48;96959.94;;;22.31
20867;BMP280;10593;48.398;10.698;2022-10-28T13:14:02;96950.38;;;22.47
20867;BMP280;10593;48.398;10.698;2022-10-28T13:19:42;96954.47;;;22.53
20867;BMP280;10593;48.398;10.698;2022-10-28T13:22:33;96956.16;;;22.54
20867;BMP280;10593;48.398;10.698;2022-10-28T13:27:59;96959.41;;;22.59
20867;BMP280;10593;48.398;10.698;2022-10-28T13:30:27;96967.16;;;22.60
20867;BMP280;10593;48.398;10.698;2022-10-28T13:33:07;96960.75;;;22.66
20867;BMP280;10593;48.398;10.698;2022-10-28T13:35:35;96969.34;;;22.68
20867;BMP280;10593;48.398;10.698;2022-10-28T13:38:09;96974.44;;;22.71
20867;BMP280;10593;48.398;10.698;2022-10-28T13:43:04;96967.25;;;22.74
20867;BMP280;10593;48.398;10.698;2022-10-28T13:45:53;96972.44;;;22.76
20867;BMP280;10593;48.398;10.698;2022-10-28T13:54:01;96965.75;;;22.86
20867;BMP280;10593;48.398;10.698;2022-10-28T13:56:43;96968.22;;;22.89
20867;BMP280;10593;48.398;10.698;2022-10-28T14:01:52;96961.88;;;22.93
20867;BMP280;10593;48.398;10.698;2022-10-28T14:04:33;96965.25;;;22.95
20867;BMP280;10593;48.398;10.698;2022-10-28T14:09:36;96960.69;;;22.98
20867;BMP280;10593;48.398;10.698;2022-10-28T14:12:27;96961.44;;;23.00
20867;BMP280;10593;48.398;10.698;2022-10-28T14:17:39;96955.09;;;23.04
20867;BMP280;10593;48.398;10.698;2022-10-28T14:20:35;96948.09;;;23.05
20867;BMP280;10593;48.398;10.698;2022-10-28T14:39:19;96948.53;;;23.13
20867;BMP280;10593;48.398;10.698;2022-10-28T14:42:40;96946.78;;;23.12
20867;BMP280;10593;48.398;10.698;2022-10-28T14:50:46;96941.56;;;23.12
20867;BMP280;10593;48.398;10.698;2022-10-28T14:53:34;96937.94;;;23.14
20867;BMP280;10593;48.398;10.698;2022-10-28T14:56:09;96935.31;;;23.14
20867;BMP280;10593;48.398;10.698;2022-10-28T14:58:41;96935.25;;;23.16
20867;BMP280;10593;48.398;10.698;2022-10-28T15:03:53;96935.25;;;23.16
20867;BMP280;10593;48.398;10.698;2022-10-28T15:06:37;96928.31;;;23.15
20867;BMP280;10593;48.398;10.698;2022-10-28T15:09:20;96935.31;;;23.14
20867;BMP280;10593;48.398;10.698;2022-10-28T15:11:58;96926.63;;;23.14
20867;BMP280;10593;48.398;10.698;2022-10-28T15:16:57;96927.47;;;23.14
20867;BMP280;10593;48.398;10.698;2022-10-28T15:19:26;96927.38;;;23.16
20867;BMP280;10593;48.398;10.698;2022-10-28T15:22:16;96931.78;;;23.15
20867;BMP280;10593;48.398;10.698;2022-10-28T15:25:05;96924.75;;;23.16
20867;BMP280;10593;48.398;10.698;2022-10-28T15:27:37;96929.16;;;23.15
20867;BMP280;10593;48.398;10.698;2022-10-28T15:30:19;96927.28;;;23.17
20867;BMP280;10593;48.398;10.698;2022-10-28T15:32:53;96928.16;;;23.18
20867;BMP280;10593;48.398;10.698;2022-10-28T15:37:58;96924.59;;;23.19
20867;BMP280;10593;48.398;10.698;2022-10-28T15:40:30;96924.59;;;23.19
20867;BMP280;10593;48.398;10.698;2022-10-28T15:43:00;96922.91;;;23.18
20867;BMP280;10593;48.398;10.698;2022-10-28T15:45:34;96930.75;;;23.18
20867;BMP280;10593;48.398;10.698;2022-10-28T15:48:09;96934.41;;;23.15
20867;BMP280;10593;48.398;10.698;2022-10-28T15:50:36;96934.50;;;23.14
20867;BMP280;10593;48.398;10.698;2022-10-28T15:54:26;96940.72;;;23.11
20867;BMP280;10593;48.398;10.698;2022-10-28T15:56:28;96942.66;;;23.08
20867;BMP280;10593;48.398;10.698;2022-10-28T15:59:19;96938.53;;;23.04
20867;BMP280;10593;48.398;10.698;2022-10-28T16:01:45;96948.25;;;23.02
20867;BMP280;10593;48.398;10.698;2022-10-28T16:06:44;96950.28;;;22.97
20867;BMP280;10593;48.398;10.698;2022-10-28T16:11:53;96949.75;;;22.90
20867;BMP280;10593;48.398;10.698;2022-10-28T16:14:38;96954.34;;;22.87
20867;BMP280;10593;48.398;10.698;2022-10-28T16:17:10;96951.88;;;22.84
20867;BMP280;10593;48.398;10.698;2022-10-28T16:22:12;96944.28;;;22.79
20867;BMP280;10593;48.398;10.698;2022-10-28T16:24:39;96940.97;;;22.76
20867;BMP280;10593;48.398;10.698;2022-10-28T16:27:18;96944.66;;;22.72
20867;BMP280;10593;48.398;10.698;2022-10-28T16:29:45;96937.84;;;22.69
20867;BMP280;10593;48.398;10.698;2022-10-28T16:32:12;96943.16;;;22.68
20867;BMP280;10593;48.398;10.698;2022-10-28T16:34:39;96947.63;;;22.66
20867;BMP280;10593;48.398;10.698;2022-10-28T16:39:46;96943.66;;;22.59
20867;BMP280;10593;48.398;10.698;2022-10-28T16:42:13;96947.19;;;22.58